Time;durP1;ratioP1;P1;durP2;ratioP2;P2;SDS_P1;SDS_P2;PMS_P1;PMS_P2;Temp;Humidity;BMP_temperature;BMP_pressure;BME280_temperature;BME280_humidity;BME280_pressure;Samples;Min_cycle;Max_cycle;Signal;HPM_P1;HPM_P2
2021/06/07 00:02:10;;;;;;;11.70;8.63;;;;;;;14.62;59.90;100622.78;1975805;89;33172;-74
2021/06/07 00:05:13;;;;;;;9.23;8.33;;;;;;;14.59;60.63;100633.28;1981694;89;29673;-60
2021/06/07 00:08:16;;;;;;;11.80;9.08;;;;;;;14.59;60.43;100624.31;1981210;89;27700;-60
2021/06/07 00:11:20;;;;;;;11.95;9.98;;;;;;;14.58;61.04;100630.20;1934123;89;29514;-61
2021/06/07 00:14:27;;;;;;;10.35;8.83;;;;;;;14.57;61.04;100628.93;1970135;89;31055;-60
2021/06/07 00:17:29;;;;;;;11.70;10.58;;;;;;;14.55;61.21;100631.73;1981522;89;33732;-63
2021/06/07 00:20:47;;;;;;;12.20;9.03;;;;;;;14.52;61.43;100635.95;1980674;89;30566;-62
2021/06/07 00:23:51;;;;;;;13.03;9.25;;;;;;;14.51;61.10;100640.96;1969424;88;28244;-60
2021/06/07 00:26:53;;;;;;;10.85;9.05;;;;;;;14.48;61.20;100634.41;1972715;89;28704;-64
2021/06/07 00:29:55;;;;;;;13.28;9.90;;;;;;;14.46;61.47;100635.00;1981264;89;32217;-60
2021/06/07 00:32:57;;;;;;;11.90;8.90;;;;;;;14.43;61.21;100633.84;1980365;89;34171;-67
2021/06/07 00:36:00;;;;;;;11.20;9.45;;;;;;;14.39;61.39;100635.86;1981325;89;29863;-62
2021/06/07 00:39:09;;;;;;;16.12;9.35;;;;;;;14.37;61.36;100640.47;1959163;86;27790;-60
2021/06/07 00:42:11;;;;;;;10.15;8.73;;;;;;;14.33;61.35;100640.72;2032220;86;28736;-60
2021/06/07 00:45:18;;;;;;;12.30;9.45;;;;;;;14.27;61.66;100644.19;2023760;86;31929;-60
2021/06/07 00:48:20;;;;;;;11.60;9.25;;;;;;;14.24;61.66;100643.02;2023705;86;33037;-61
2021/06/07 00:51:23;;;;;;;10.43;9.08;;;;;;;14.22;61.63;100640.05;2068273;85;29831;-66
2021/06/07 00:54:25;;;;;;;12.98;9.00;;;;;;;14.21;61.71;100639.66;2072345;85;27726;-61
2021/06/07 00:57:27;;;;;;;10.70;8.78;;;;;;;14.19;61.76;100644.27;2090829;84;29790;-68
2021/06/07 01:00:29;;;;;;;14.15;10.18;;;;;;;14.19;61.97;100633.48;2090429;85;32231;-67
2021/06/07 01:03:33;;;;;;;12.47;10.75;;;;;;;14.18;62.07;100635.29;2088440;85;29233;-61
2021/06/07 01:06:37;;;;;;;11.43;10.23;;;;;;;14.20;62.70;100636.56;2082943;85;30286;-71
2021/06/07 01:09:38;;;;;;;10.72;8.95;;;;;;;14.21;62.70;100634.27;2057188;85;27643;-61
2021/06/07 01:12:41;;;;;;;10.03;9.00;;;;;;;14.21;62.46;100643.20;2056841;85;29806;-73
2021/06/07 01:15:45;;;;;;;12.85;9.55;;;;;;;14.23;62.56;100633.70;2063945;85;31341;-63
2021/06/07 01:18:48;;;;;;;12.58;9.53;;;;;;;14.25;62.73;100634.44;2090901;85;32980;-60
2021/06/07 01:21:50;;;;;;;12.13;8.58;;;;;;;14.25;62.88;100638.02;2036506;85;29318;-65
2021/06/07 01:24:52;;;;;;;12.45;10.00;;;;;;;14.27;62.73;100632.53;2095410;84;27801;-69
2021/06/07 01:27:55;;;;;;;9.90;8.20;;;;;;;14.27;62.90;100632.06;2102331;84;29928;-61
2021/06/07 01:30:58;;;;;;;10.68;8.65;;;;;;;14.27;62.97;100629.38;2094328;84;32385;-68
2021/06/07 01:34:00;;;;;;;11.10;9.40;;;;;;;14.27;62.86;100636.11;2069462;86;33342;-62
2021/06/07 01:37:03;;;;;;;9.10;8.15;;;;;;;14.28;63.14;100631.11;2086949;84;29699;-67
2021/06/07 01:40:08;;;;;;;10.20;8.48;;;;;;;14.27;63.06;100623.98;2069662;85;27702;-60
2021/06/07 01:43:11;;;;;;;;;;;;;;;14.26;63.00;100628.09;2072482;84;29753;-75
2021/06/07 01:46:15;;;;;;;13.15;8.73;;;;;;;14.23;63.26;100625.61;2071344;84;31256;-61
2021/06/07 01:49:18;;;;;;;12.18;8.93;;;;;;;14.20;63.12;100627.98;2069512;84;33194;-63
2021/06/07 01:52:19;;;;;;;13.25;8.90;;;;;;;14.18;63.12;100629.91;2097731;84;30533;-63
2021/06/07 01:55:26;;;;;;;12.25;8.90;;;;;;;14.16;63.07;100622.38;2085960;84;27809;-69
2021/06/07 01:58:29;;;;;;;10.55;9.43;;;;;;;14.13;63.15;100620.75;2069513;86;28678;-66
2021/06/07 02:01:31;;;;;;;11.12;8.73;;;;;;;14.10;63.26;100623.63;2086986;84;31866;-64
2021/06/07 02:04:34;;;;;;;11.78;8.95;;;;;;;14.08;63.22;100628.23;2101858;84;33430;-62
2021/06/07 02:07:36;;;;;;;11.68;9.55;;;;;;;14.05;63.35;100628.44;2103946;84;30508;-68
2021/06/07 02:10:43;;;;;;;12.20;9.40;;;;;;;14.02;63.30;100621.88;2103281;84;27749;-65
2021/06/07 02:13:47;;;;;;;10.98;9.70;;;;;;;14.01;63.34;100630.03;2095066;84;28637;-68
2021/06/07 02:16:49;;;;;;;10.95;9.03;;;;;;;13.98;63.35;100635.13;2096431;84;31016;-69
2021/06/07 02:19:51;;;;;;;10.70;9.55;;;;;;;13.94;63.37;100627.72;2071563;84;33801;-71
2021/06/07 02:22:54;;;;;;;12.05;10.75;;;;;;;13.91;63.58;100627.00;2070390;84;29381;-63
2021/06/07 02:25:57;;;;;;;15.35;11.53;;;;;;;13.88;64.31;100628.06;2089285;84;27713;-65
2021/06/07 02:29:04;;;;;;;12.68;10.13;;;;;;;13.88;63.99;100623.17;2106148;83;29066;-60
2021/06/07 02:32:07;;;;;;;12.13;10.03;;;;;;;13.87;64.01;100623.63;2091431;83;31496;-72
2021/06/07 02:35:13;;;;;;;13.72;10.43;;;;;;;13.87;64.11;100622.29;2089390;85;33757;-60
2021/06/07 02:38:15;;;;;;;16.32;10.68;;;;;;;13.89;64.04;100627.11;2092210;83;30138;-61
2021/06/07 02:41:19;;;;;;;12.37;10.38;;;;;;;13.89;64.09;100624.42;2125266;83;27666;-60
2021/06/07 02:44:22;;;;;;;12.00;10.30;;;;;;;13.91;64.16;100622.97;2125072;83;28655;-63
2021/06/07 02:47:24;;;;;;;13.68;11.45;;;;;;;13.91;64.24;100622.50;2094772;83;31079;-60
2021/06/07 02:50:30;;;;;;;16.62;11.35;;;;;;;13.93;64.36;100620.59;2096948;83;34290;-61
2021/06/07 02:53:32;;;;;;;14.68;11.30;;;;;;;13.96;64.68;100623.58;2113403;83;29314;-63
2021/06/07 02:56:34;;;;;;;14.85;11.33;;;;;;;13.99;64.64;100622.05;2096337;82;27627;-64
2021/06/07 02:59:36;;;;;;;12.45;10.95;;;;;;;14.03;64.67;100625.42;2093201;83;29024;-70
2021/06/07 03:02:38;;;;;;;12.95;10.68;;;;;;;14.05;64.60;100624.39;2122793;83;31514;-72
2021/06/07 03:05:42;;;;;;;12.53;10.65;;;;;;;14.08;64.65;100621.98;2124688;83;33486;-72
2021/06/07 03:08:43;;;;;;;11.65;10.18;;;;;;;14.10;64.83;100621.42;2124944;83;29326;-65
2021/06/07 03:11:45;;;;;;;13.78;10.85;;;;;;;14.11;64.91;100625.86;2122942;83;28295;-64
2021/06/07 03:14:47;;;;;;;16.65;10.60;;;;;;;14.12;65.18;100625.75;2124967;83;29058;-67
2021/06/07 03:17:50;;;;;;;12.88;10.53;;;;;;;14.14;65.08;100624.33;2098412;83;31841;-66
2021/06/07 03:20:52;;;;;;;14.20;10.58;;;;;;;14.18;65.21;100620.47;2101605;83;32955;-67
2021/06/07 03:23:54;;;;;;;12.88;10.48;;;;;;;14.23;65.22;100622.92;2114816;83;29380;-66
2021/06/07 03:26:57;;;;;;;16.77;11.33;;;;;;;14.26;65.14;100622.70;2096600;84;27590;-73
2021/06/07 03:29:58;;;;;;;13.58;11.57;;;;;;;14.32;65.08;100623.70;2072297;84;29505;-62
2021/06/07 03:33:01;;;;;;;15.45;11.12;;;;;;;14.37;65.06;100629.69;2071830;84;31348;-73
2021/06/07 03:36:05;;;;;;;16.32;11.20;;;;;;;14.43;65.21;100631.14;2069506;84;33767;-73
2021/06/07 03:39:07;;;;;;;15.20;11.53;;;;;;;14.50;65.28;100634.33;2071431;84;29363;-72
2021/06/07 03:42:09;;;;;;;13.50;11.28;;;;;;;14.56;65.38;100632.12;2069615;84;27707;-72
2021/06/07 03:45:13;;;;;;;11.93;10.23;;;;;;;14.68;65.39;100637.75;2069307;84;29322;-70
2021/06/07 03:48:15;;;;;;;13.55;11.65;;;;;;;14.79;65.40;100626.30;2101180;84;31861;-70
2021/06/07 03:51:18;;;;;;;13.13;11.30;;;;;;;14.90;65.38;100623.79;2101616;84;33485;-73
2021/06/07 03:54:23;;;;;;;12.23;10.48;;;;;;;15.00;65.25;100620.92;2071752;84;28775;-72
2021/06/07 03:57:24;;;;;;;;;;;;;;;15.12;65.15;100621.09;2072212;84;27628;-68
2021/06/07 04:00:30;;;;;;;12.13;10.82;;;;;;;15.22;65.17;100628.13;2081046;84;29814;-64
2021/06/07 04:03:33;;;;;;;15.63;11.73;;;;;;;15.30;65.16;100633.91;2086200;84;31094;-73
2021/06/07 04:06:35;;;;;;;16.48;12.95;;;;;;;15.43;65.16;100636.66;2102681;84;33969;-72
2021/06/07 04:09:39;;;;;;;17.65;13.08;;;;;;;15.56;65.17;100627.30;2092081;84;30592;-72
2021/06/07 04:12:41;;;;;;;19.00;12.40;;;;;;;15.69;65.02;100626.01;2104532;84;28240;-68
2021/06/07 04:15:43;;;;;;;15.35;12.93;;;;;;;15.82;64.97;100630.09;2092644;84;29532;-74
2021/06/07 04:18:46;;;;;;;18.73;14.50;;;;;;;15.97;64.79;100629.09;2075227;84;31909;-72
2021/06/07 04:21:48;;;;;;;18.37;14.65;;;;;;;16.13;64.72;100628.94;2083533;84;33934;-67
2021/06/07 04:24:50;;;;;;;19.00;13.35;;;;;;;16.32;64.44;100633.09;2096701;82;30605;-67
2021/06/07 04:27:53;;;;;;;16.23;13.43;;;;;;;16.51;64.13;100635.39;2103756;84;27634;-68
2021/06/07 04:30:55;;;;;;;17.55;12.93;;;;;;;16.69;63.75;100637.31;2101890;84;29877;-61
2021/06/07 04:33:57;;;;;;;20.02;13.20;;;;;;;16.86;63.59;100634.28;2103717;84;32410;-65
2021/06/07 04:37:00;;;;;;;16.00;12.90;;;;;;;17.05;63.48;100637.04;2101772;84;33808;-70
2021/06/07 04:40:02;;;;;;;15.08;12.88;;;;;;;17.19;63.35;100638.77;2071802;84;30284;-75
2021/06/07 04:43:09;;;;;;;16.55;12.40;;;;;;;17.35;63.07;100639.00;2069704;84;27696;-62
2021/06/07 04:46:11;;;;;;;16.00;12.78;;;;;;;17.71;63.44;100638.13;2064882;84;28644;-65
2021/06/07 04:49:13;;;;;;;15.03;12.95;;;;;;;18.08;62.76;100638.61;2070074;84;31134;-62
2021/06/07 04:52:14;;;;;;;14.53;11.68;;;;;;;18.26;62.11;100637.69;2092401;84;33015;-62
2021/06/07 04:55:16;;;;;;;19.73;12.78;;;;;;;18.88;62.68;100633.39;2072352;84;30077;-73
2021/06/07 04:58:29;;;;;;;20.48;12.33;;;;;;;19.59;61.78;100627.70;2069754;85;28087;-73
2021/06/07 05:01:31;;;;;;;19.55;13.53;;;;;;;19.96;60.74;100627.88;2073423;84;29872;-66
2021/06/07 05:04:33;;;;;;;16.87;13.78;;;;;;;20.62;60.53;100622.71;2069306;84;31139;-61
2021/06/07 05:07:35;;;;;;;15.20;13.03;;;;;;;21.18;59.33;100620.08;2072982;84;32751;-61
2021/06/07 05:10:37;;;;;;;14.25;12.28;;;;;;;21.83;57.79;100624.30;2090666;84;29683;-61
2021/06/07 05:13:39;;;;;;;19.07;14.90;;;;;;;22.24;56.78;100626.91;2083778;84;27611;-62
2021/06/07 05:16:41;;;;;;;16.82;12.70;;;;;;;22.57;55.61;100620.13;2071070;84;29963;-63
2021/06/07 05:19:43;;;;;;;20.32;13.90;;;;;;;22.72;54.80;100625.12;2069500;84;31882;-66
2021/06/07 05:22:45;;;;;;;16.45;12.35;;;;;;;23.11;54.15;100628.22;2071206;84;34100;-69
2021/06/07 05:25:48;;;;;;;16.05;12.28;;;;;;;23.90;53.62;100632.28;2109530;82;29696;-68
2021/06/07 05:28:49;;;;;;;19.95;12.47;;;;;;;24.68;52.63;100628.52;2124899;82;28310;-70
2021/06/07 05:31:51;;;;;;;15.23;12.82;;;;;;;25.57;51.55;100631.05;2100888;83;29037;-65
2021/06/07 05:34:53;;;;;;;15.80;11.95;;;;;;;26.07;50.29;100637.53;2116603;83;32226;-66
2021/06/07 05:37:59;;;;;;;17.60;12.13;;;;;;;26.31;49.25;100642.74;2118854;83;34214;-67
2021/06/07 05:41:01;;;;;;;24.77;12.75;;;;;;;26.96;49.13;100640.98;2089243;85;30606;-64
2021/06/07 05:44:03;;;;;;;17.52;12.85;;;;;;;27.79;48.16;100636.53;2106937;83;27529;-63
2021/06/07 05:47:05;;;;;;;13.08;11.12;;;;;;;28.55;46.65;100636.66;2104027;83;28984;-61
2021/06/07 05:50:10;;;;;;;14.98;12.35;;;;;;;29.28;45.84;100642.97;2124489;83;31846;-60
2021/06/07 05:53:14;;;;;;;17.32;12.23;;;;;;;30.03;44.13;100634.58;2122724;83;32974;-65
2021/06/07 05:56:16;;;;;;;16.82;12.58;;;;;;;30.67;42.50;100643.06;2124838;83;30535;-64
2021/06/07 05:59:17;;;;;;;15.40;12.23;;;;;;;31.21;41.56;100651.21;2124867;83;27702;-73
2021/06/07 06:02:20;;;;;;;15.20;12.25;;;;;;;31.62;40.08;100650.86;2124723;83;29005;-70
2021/06/07 06:05:23;;;;;;;17.70;12.78;;;;;;;31.74;39.10;100649.77;2099706;83;31488;-68
2021/06/07 06:08:27;;;;;;;16.15;14.47;;;;;;;31.68;38.43;100651.44;2099654;83;37205;-68
2021/06/07 06:11:34;;;;;;;14.98;12.75;;;;;;;31.47;38.04;100656.55;2124713;83;30638;-67
2021/06/07 06:21:07;;;;;;;12.95;11.60;;;;;;;32.61;36.85;100646.28;1695763;104;27807;-64
2021/06/07 06:24:11;;;;;;;15.60;11.80;;;;;;;33.22;36.42;100648.47;1703426;104;33162;-68
2021/06/07 06:27:15;;;;;;;12.25;10.30;;;;;;;33.49;35.15;100649.27;1708331;104;30760;-64
2021/06/07 06:30:21;;;;;;;12.93;11.53;;;;;;;33.69;34.78;100649.69;1689356;104;27747;-64
2021/06/07 06:33:23;;;;;;;14.00;9.65;;;;;;;33.84;34.41;100651.63;1695888;104;28743;-65
2021/06/07 06:36:27;;;;;;;11.75;10.25;;;;;;;34.04;34.32;100646.53;1707778;104;31368;-68
2021/06/07 06:39:30;;;;;;;12.85;11.18;;;;;;;34.20;33.18;100647.93;1691206;104;33729;-68
2021/06/07 06:42:35;;;;;;;11.95;10.55;;;;;;;34.03;32.23;100647.60;1688851;104;36886;-67
2021/06/07 06:45:37;;;;;;;14.20;10.85;;;;;;;33.49;32.21;100645.09;1689244;104;28115;-61
2021/06/07 06:48:39;;;;;;;13.10;10.72;;;;;;;32.90;32.39;100648.34;1712435;102;29195;-63
2021/06/07 06:51:41;;;;;;;14.13;10.43;;;;;;;32.35;32.85;100648.00;1716565;103;33201;-63
2021/06/07 06:54:43;;;;;;;12.70;9.80;;;;;;;31.85;32.81;100643.62;1745870;98;33706;-66
2021/06/07 06:57:46;;;;;;;14.78;11.00;;;;;;;31.28;33.14;100649.31;1904617;83;28963;-62
2021/06/07 07:00:49;;;;;;;18.98;10.72;;;;;;;30.77;33.55;100657.37;2140941;83;27635;-67
2021/06/07 07:03:51;;;;;;;14.78;10.00;;;;;;;30.13;34.03;100651.67;2154840;81;28790;-68
2021/06/07 07:06:54;;;;;;;13.20;9.80;;;;;;;29.69;34.58;100653.53;2149754;81;31647;-65
2021/06/07 07:09:56;;;;;;;11.90;9.13;;;;;;;29.29;35.01;100652.12;2141582;81;33750;-68
2021/06/07 07:12:58;;;;;;;11.57;9.40;;;;;;;28.89;35.61;100656.51;2158842;81;30183;-67
2021/06/07 07:16:01;;;;;;;13.48;8.28;;;;;;;28.62;36.05;100655.56;2160748;80;27673;-68
2021/06/07 07:19:03;;;;;;;10.03;8.38;;;;;;;28.50;36.24;100658.41;2097456;84;28709;-64
2021/06/07 07:22:06;;;;;;;8.65;7.62;;;;;;;28.87;36.54;100662.77;2098012;84;31962;-67
2021/06/07 07:25:11;;;;;;;10.65;7.60;;;;;;;29.51;35.89;100666.89;2097154;84;33858;-72
2021/06/07 07:28:13;;;;;;;11.57;7.20;;;;;;;30.15;35.32;100672.22;2097355;84;30477;-70
2021/06/07 07:31:14;;;;;;;8.38;6.33;;;;;;;30.70;34.59;100668.39;2079189;84;27742;-70
2021/06/07 07:34:16;;;;;;;6.72;5.72;;;;;;;31.36;35.00;100672.69;2063408;86;29187;-68
2021/06/07 07:37:20;;;;;;;6.97;5.45;;;;;;;32.09;33.77;100673.22;2062717;86;32060;-62
2021/06/07 07:40:25;;;;;;;10.43;5.97;;;;;;;32.67;32.32;100667.11;2092353;84;32959;-70
2021/06/07 07:43:27;;;;;;;8.15;6.37;;;;;;;33.12;31.88;100670.58;2097800;84;29334;-70
2021/06/07 07:46:30;;;;;;;7.67;5.08;;;;;;;33.55;30.42;100663.64;2092574;84;28102;-66
2021/06/07 07:49:32;;;;;;;9.40;5.03;;;;;;;33.76;30.36;100667.19;2062760;86;30040;-65
2021/06/07 07:52:35;;;;;;;6.55;4.78;;;;;;;34.02;29.66;100661.19;2062726;86;31744;-66
2021/06/07 07:55:37;;;;;;;9.65;5.53;;;;;;;34.15;29.48;100668.08;2062702;86;33806;-70
2021/06/07 07:58:39;;;;;;;10.28;5.58;;;;;;;34.52;28.96;100667.41;2091398;84;30529;-67
2021/06/07 08:01:42;;;;;;;10.58;5.00;;;;;;;34.82;28.28;100670.87;2097788;84;27637;-67
2021/06/07 08:04:46;;;;;;;8.03;5.67;;;;;;;34.72;28.05;100669.16;2097285;84;28706;-66
2021/06/07 08:07:48;;;;;;;8.53;5.15;;;;;;;34.84;28.01;100668.72;2097917;84;31880;-62
2021/06/07 08:10:55;;;;;;;6.55;4.60;;;;;;;34.98;27.50;100667.53;2097532;84;33924;-61
2021/06/07 08:13:55;;;;;;;7.40;4.87;;;;;;;35.23;27.65;100661.59;2097484;84;30139;-66
2021/06/07 08:16:58;;;;;;;9.78;4.83;;;;;;;35.48;27.29;100662.94;2075979;84;27674;-66
2021/06/07 08:20:00;;;;;;;5.08;4.53;;;;;;;35.83;27.07;100666.97;2063229;86;29907;-66
2021/06/07 08:23:04;;;;;;;5.70;4.62;;;;;;;35.77;26.25;100662.36;2063448;86;31860;-61
2021/06/07 08:26:06;;;;;;;7.40;4.83;;;;;;;35.71;25.64;100660.81;2075524;84;33031;-59
2021/06/07 08:29:09;;;;;;;5.22;4.72;;;;;;;35.68;25.61;100656.26;2097811;84;30180;-60
2021/06/07 08:32:11;;;;;;;7.33;5.33;;;;;;;35.50;25.54;100656.59;2097899;84;27673;-60
2021/06/07 08:35:14;;;;;;;7.28;5.58;;;;;;;35.08;25.75;100657.27;2097568;84;29906;-60
2021/06/07 08:38:18;;;;;;;9.68;5.80;;;;;;;34.93;26.11;100659.53;2061074;84;31027;-61
2021/06/07 08:41:21;;;;;;;5.60;5.05;;;;;;;34.96;25.47;100659.95;2085018;84;32972;-78
2021/06/07 09:07:04;;;;;;;9.40;4.72;;;;;;;34.08;26.19;100642.23;2231761;79;27690;-64
2021/06/07 09:10:13;;;;;;;6.42;4.42;;;;;;;33.90;25.93;100645.23;2181989;80;27617;-63
2021/06/07 09:13:18;;;;;;;4.75;3.87;;;;;;;33.73;25.90;100649.05;2179188;81;28636;-61
2021/06/07 09:16:20;;;;;;;14.35;8.73;;;;;;;33.81;25.83;100645.16;2181524;81;31959;-61
2021/06/07 09:19:31;;;;;;;7.95;4.78;;;;;;;33.88;25.96;100647.34;2177237;81;33719;-61
2021/06/07 09:22:33;;;;;;;4.90;4.40;;;;;;;33.93;25.12;100646.17;2177520;81;28611;-61
2021/06/07 09:25:38;;;;;;;10.35;4.87;;;;;;;33.88;25.19;100645.11;2177568;81;27736;-65
2021/06/07 09:28:40;;;;;;;5.42;4.70;;;;;;;33.91;25.25;100640.54;2179924;81;28792;-64
2021/06/07 09:31:45;;;;;;;15.28;11.40;;;;;;;33.91;25.06;100640.54;2182228;81;31813;-61
2021/06/07 09:34:47;;;;;;;6.20;5.17;;;;;;;34.03;24.84;100646.21;2182112;81;33763;-61
2021/06/07 09:38:08;;;;;;;6.08;4.45;;;;;;;34.08;24.32;100641.71;2153255;80;29935;-59
2021/06/07 09:41:12;;;;;;;6.70;5.33;;;;;;;33.96;24.49;100641.25;2164262;80;27688;-60
2021/06/07 09:44:37;;;;;;;4.87;3.52;;;;;;;33.79;24.18;100640.35;2164876;80;28832;-61
2021/06/07 09:47:41;;;;;;;26.23;18.77;;;;;;;33.72;23.59;100628.41;2179137;80;32235;-60
2021/06/07 09:50:53;;;;;;;;;;;;;;;33.52;23.96;100629.91;2172048;80;34206;-60
2021/06/07 09:53:55;;;;;;;20.43;14.45;;;;;;;33.45;23.72;100628.00;2171402;80;28873;-59
2021/06/07 09:57:01;;;;;;;38.20;28.57;;;;;;;33.35;24.00;100637.31;2176729;80;28143;-59
2021/06/07 10:00:05;;;;;;;40.40;30.68;;;;;;;33.24;23.92;100626.34;2170446;81;28669;-60
2021/06/07 10:03:20;;;;;;;21.48;16.25;;;;;;;33.26;24.12;100633.92;2171101;80;31089;-60
2021/06/07 10:06:35;;;;;;;25.57;17.45;;;;;;;33.20;23.19;100626.46;2167019;80;33044;-60
2021/06/07 10:09:37;;;;;;;8.00;6.95;;;;;;;33.04;23.16;100623.64;2174581;80;28890;-64
2021/06/07 10:12:41;;;;;;;4.58;3.30;;;;;;;32.95;23.16;100623.02;2178632;80;28118;-60
2021/06/07 10:15:48;;;;;;;;;;;;;;;32.99;23.08;100619.27;2187012;80;28666;-60
2021/06/07 10:18:50;;;;;;;18.75;13.70;;;;;;;33.03;23.56;100614.99;2181046;81;32360;-59
2021/06/07 10:21:55;;;;;;;11.20;6.78;;;;;;;33.01;23.43;100612.97;2176034;81;33332;-67
2021/06/07 10:24:56;;;;;;;18.95;12.93;;;;;;;32.95;23.53;100624.92;2167152;81;29605;-60
2021/06/07 10:27:59;;;;;;;12.35;9.53;;;;;;;32.90;23.14;100622.81;2174838;80;27740;-60
2021/06/07 10:31:18;;;;;;;11.48;7.17;;;;;;;32.77;23.16;100622.25;2176884;80;29192;-66
2021/06/07 10:34:20;;;;;;;19.05;11.08;;;;;;;32.65;23.03;100621.21;2177282;80;32025;-59
2021/06/07 10:37:22;;;;;;;30.08;20.55;;;;;;;32.56;23.37;100620.58;2190417;80;33012;-60
2021/06/07 10:40:26;;;;;;;20.75;16.32;;;;;;;32.37;23.31;100623.14;2197403;80;29094;-61
2021/06/07 10:43:48;;;;;;;30.30;17.87;;;;;;;32.18;23.56;100626.75;2201051;80;28284;-61
2021/06/07 10:46:55;;;;;;;17.00;10.65;;;;;;;32.00;23.58;100624.05;2188359;80;28652;-60
2021/06/07 10:50:07;;;;;;;29.15;17.80;;;;;;;31.81;24.10;100615.48;2146100;82;31111;-66
2021/06/07 10:53:24;;;;;;;8.40;4.75;;;;;;;31.67;24.50;100611.78;2126696;83;33787;-66
2021/06/07 10:56:28;;;;;;;8.35;4.10;;;;;;;31.58;24.31;100607.50;2135299;82;28942;-59
2021/06/07 10:59:35;;;;;;;3.00;2.65;;;;;;;31.49;23.71;100612.89;2135302;83;27729;-59
2021/06/07 11:02:45;;;;;;;4.33;3.40;;;;;;;31.28;23.17;100611.94;2132822;83;29934;-59
2021/06/07 11:05:59;;;;;;;10.98;7.60;;;;;;;31.03;22.90;100606.03;2139116;82;33186;-60
2021/06/07 11:09:06;;;;;;;23.50;14.00;;;;;;;30.81;23.54;100609.41;2106592;84;34260;-60
2021/06/07 11:12:11;;;;;;;20.08;12.98;;;;;;;30.70;24.10;100606.16;2149618;81;28700;-60
2021/06/07 11:15:27;;;;;;;10.68;6.25;;;;;;;30.60;24.38;100605.13;2183607;81;27658;-61
2021/06/07 11:18:33;;;;;;;17.65;8.83;;;;;;;30.52;24.49;100605.27;2156163;81;28815;-62
2021/06/07 11:21:41;;;;;;;6.40;4.92;;;;;;;30.46;24.66;100600.53;2183670;81;30867;-62
2021/06/07 11:24:45;;;;;;;7.47;6.10;;;;;;;30.38;24.79;100592.37;2182307;81;33793;-61
2021/06/07 11:27:47;;;;;;;9.78;5.65;;;;;;;30.34;25.03;100589.70;2177246;81;29574;-60
2021/06/07 11:30:49;;;;;;;16.35;9.40;;;;;;;30.23;25.30;100593.31;2109696;84;27700;-61
2021/06/07 11:34:10;;;;;;;9.48;4.67;;;;;;;30.20;25.60;100590.94;2071891;85;29553;-60
2021/06/07 11:37:19;;;;;;;5.05;4.30;;;;;;;30.20;25.49;100585.95;2124173;83;30861;-61
2021/06/07 11:40:27;;;;;;;3.75;3.40;;;;;;;30.18;25.30;100583.41;2138407;83;34214;-61
2021/06/07 11:43:53;;;;;;;7.08;4.12;;;;;;;30.07;25.14;100579.27;2139797;83;28720;-60
2021/06/07 11:46:56;;;;;;;22.50;11.30;;;;;;;30.06;25.42;100576.68;2143716;83;27692;-60
2021/06/07 11:50:04;;;;;;;5.47;3.90;;;;;;;30.13;25.89;100577.61;2146507;83;28645;-60
2021/06/07 11:53:17;;;;;;;20.27;10.78;;;;;;;30.21;25.50;100573.84;2145826;83;31067;-60
2021/06/07 11:56:22;;;;;;;26.62;13.70;;;;;;;30.27;25.69;100567.53;2154122;81;32956;-60
2021/06/07 11:59:31;;;;;;;21.35;11.10;;;;;;;30.35;26.53;100572.91;2183548;81;28741;-60
2021/06/07 12:02:32;;;;;;;25.27;13.30;;;;;;;30.40;26.64;100575.05;2170639;81;27721;-60
2021/06/07 12:05:36;;;;;;;11.85;7.55;;;;;;;30.39;26.48;100568.69;2144679;83;29873;-60
2021/06/07 12:08:39;;;;;;;20.35;10.23;;;;;;;30.37;27.02;100563.02;2113291;84;32259;-62
2021/06/07 12:11:43;;;;;;;11.68;6.95;;;;;;;30.35;27.27;100567.38;2162588;81;33344;-62
2021/06/07 12:14:47;;;;;;;9.28;4.62;;;;;;;30.27;26.91;100573.06;2163441;81;29309;-60
2021/06/07 12:17:54;;;;;;;25.45;10.93;;;;;;;30.14;27.32;100566.89;2156833;81;27686;-61
2021/06/07 12:21:10;;;;;;;17.75;9.13;;;;;;;30.09;27.72;100574.91;2112556;84;29554;-60
2021/06/07 12:24:16;;;;;;;5.87;4.85;;;;;;;30.07;27.62;100572.36;2108914;84;32016;-61
2021/06/07 12:30:51;;;;;;;15.18;8.08;;;;;;;30.13;27.34;100567.39;2117256;84;29400;-61
2021/06/07 12:33:53;;;;;;;6.47;4.40;;;;;;;30.11;27.31;100561.75;2117672;83;27711;-62
2021/06/07 12:36:57;;;;;;;4.58;3.72;;;;;;;30.20;27.45;100564.69;2117325;83;29881;-60
2021/06/07 12:40:24;;;;;;;7.28;5.37;;;;;;;30.33;27.29;100558.97;2156142;82;31965;-60
2021/06/07 12:43:30;;;;;;;4.80;4.40;;;;;;;30.47;26.95;100553.86;2119909;83;33053;-62
2021/06/07 12:46:46;;;;;;;7.65;4.58;;;;;;;30.57;26.99;100553.53;2118618;84;28776;-61
2021/06/07 12:49:47;;;;;;;5.03;3.98;;;;;;;30.65;26.65;100551.14;2118933;83;28196;-60
2021/06/07 12:52:53;;;;;;;10.23;6.55;;;;;;;30.75;26.70;100555.25;2118987;83;29903;-60
2021/06/07 12:56:02;;;;;;;5.05;4.55;;;;;;;30.87;26.84;100549.14;2119284;83;31924;-61
2021/06/07 12:59:03;;;;;;;4.47;4.03;;;;;;;30.95;26.22;100550.88;2104122;84;33786;-68
2021/06/07 13:02:08;;;;;;;4.67;3.90;;;;;;;30.93;25.86;100544.18;2117176;84;30847;-60
2021/06/07 13:05:10;;;;;;;11.83;5.37;;;;;;;30.88;25.63;100544.77;2156354;82;27679;-60
2021/06/07 13:08:21;;;;;;;21.90;9.65;;;;;;;30.88;25.90;100543.39;2119830;83;29595;-60
2021/06/07 13:11:28;;;;;;;6.92;4.33;;;;;;;30.82;26.18;100547.50;2119669;83;32031;-66
2021/06/07 13:14:30;;;;;;;4.70;4.25;;;;;;;30.65;26.10;100539.53;2108782;84;32974;-60
2021/06/07 13:17:33;;;;;;;5.45;3.90;;;;;;;30.53;25.78;100539.20;2155494;82;28762;-69
2021/06/07 13:20:35;;;;;;;5.37;3.80;;;;;;;30.38;25.66;100537.95;2131079;83;27613;-62
2021/06/07 13:23:41;;;;;;;9.55;5.92;;;;;;;30.22;25.92;100537.71;2137643;83;29155;-60
2021/06/07 13:26:59;;;;;;;8.70;4.72;;;;;;;30.14;25.93;100536.48;2137239;83;32103;-60
2021/06/07 13:30:10;;;;;;;11.50;7.37;;;;;;;30.08;26.14;100528.98;2135788;83;34180;-60
2021/06/07 13:33:29;;;;;;;9.00;4.78;;;;;;;30.03;26.19;100532.36;2137767;83;28742;-72
2021/06/07 13:36:32;;;;;;;14.33;6.97;;;;;;;29.98;25.97;100533.47;2137311;83;27594;-70
2021/06/07 13:39:35;;;;;;;10.23;6.30;;;;;;;29.94;26.28;100527.47;2134603;83;29267;-63
2021/06/07 13:42:48;;;;;;;5.78;4.62;;;;;;;29.90;26.31;100523.38;2108178;83;31079;-60
2021/06/07 13:45:50;;;;;;;5.58;5.08;;;;;;;29.90;26.15;100522.55;2117047;84;33970;-70
2021/06/07 13:48:53;;;;;;;13.35;8.73;;;;;;;29.82;26.36;100519.39;2156139;82;29984;-59
2021/06/07 13:51:56;;;;;;;6.30;5.08;;;;;;;29.76;26.72;100515.52;2120887;83;27724;-59
2021/06/07 13:54:58;;;;;;;13.70;6.83;;;;;;;29.73;26.43;100516.42;2119466;83;28651;-71
2021/06/07 13:58:13;;;;;;;9.18;6.05;;;;;;;29.63;26.79;100512.60;2119101;83;32240;-70
2021/06/07 14:01:17;;;;;;;4.87;4.47;;;;;;;29.58;26.95;100516.50;2110834;83;33073;-64
2021/06/07 14:04:18;;;;;;;6.60;4.67;;;;;;;29.47;26.76;100499.39;2117561;84;32909;-60
2021/06/07 14:07:20;;;;;;;7.40;5.12;;;;;;;29.41;27.16;100496.05;2120860;83;27827;-64
2021/06/07 14:10:24;;;;;;;13.08;7.35;;;;;;;29.38;27.22;100495.06;2135876;82;29995;-72
2021/06/07 14:13:27;;;;;;;8.80;5.80;;;;;;;29.40;27.54;100493.80;2114058;83;31034;-64
2021/06/07 14:16:32;;;;;;;7.08;5.40;;;;;;;29.46;27.84;100494.91;2099727;84;33223;-70
2021/06/07 14:19:35;;;;;;;5.00;4.50;;;;;;;29.49;27.60;100490.39;2100645;84;29032;-68
2021/06/07 14:25:57;;;;;;;5.03;4.62;;;;;;;29.42;27.53;100495.00;2136568;82;29129;-61
2021/06/07 14:28:59;;;;;;;5.17;4.55;;;;;;;29.29;27.82;100495.67;2136294;83;30300;-61
2021/06/07 14:32:03;;;;;;;6.50;4.40;;;;;;;29.02;28.14;100498.13;2142989;82;33900;-60
2021/06/07 14:35:06;;;;;;;5.97;4.85;;;;;;;28.80;28.49;100499.94;2168962;82;29941;-68
2021/06/07 14:38:11;;;;;;;5.60;5.10;;;;;;;28.59;28.82;100496.05;2149860;82;27846;-63
2021/06/07 14:41:14;;;;;;;5.75;5.25;;;;;;;28.43;29.08;100484.67;2168665;82;28887;-70
2021/06/07 14:44:15;;;;;;;9.68;5.12;;;;;;;28.33;29.35;100482.73;2149651;82;31084;-60